createdAt,value
2018-08-11T00:00:00.066Z,18.90
2018-08-11T00:02:27.395Z,18.80
2018-08-11T00:04:54.691Z,18.70
2018-08-11T00:07:21.984Z,18.90
2018-08-11T00:09:49.231Z,18.90
2018-08-11T00:12:16.546Z,19.00
2018-08-11T00:14:43.829Z,18.80
2018-08-11T00:17:11.211Z,18.80
2018-08-11T00:19:38.554Z,18.90
2018-08-11T00:22:05.843Z,18.90
2018-08-11T00:24:33.169Z,19.00
2018-08-11T00:27:00.449Z,18.70
2018-08-11T00:29:27.730Z,18.70
2018-08-11T00:31:55.007Z,18.70
2018-08-11T00:34:22.246Z,18.80
2018-08-11T00:36:49.498Z,18.80
2018-08-11T00:39:16.740Z,18.70
2018-08-11T00:41:44.116Z,18.70
2018-08-11T00:44:11.398Z,18.60
2018-08-11T00:46:39.196Z,18.60
2018-08-11T00:49:07.884Z,18.60
2018-08-11T00:51:35.139Z,18.60
2018-08-11T00:54:02.415Z,18.70
2018-08-11T00:56:31.135Z,18.80
2018-08-11T00:58:58.499Z,18.80
2018-08-11T01:01:25.780Z,18.70
2018-08-11T01:03:53.054Z,18.70
2018-08-11T01:06:20.339Z,18.70
2018-08-11T01:08:47.704Z,18.60
2018-08-11T01:11:15.060Z,18.50
2018-08-11T01:13:42.316Z,18.30
2018-08-11T01:16:09.590Z,18.20
2018-08-11T01:18:39.503Z,18.10
2018-08-11T01:21:06.801Z,18.20
2018-08-11T01:23:34.050Z,18.30
2018-08-11T01:26:01.304Z,18.30
2018-08-11T01:28:28.721Z,18.00
2018-08-11T01:30:55.984Z,17.90
2018-08-11T01:33:23.218Z,17.80
2018-08-11T01:35:50.434Z,17.70
2018-08-11T01:38:17.699Z,17.60
2018-08-11T01:40:44.914Z,17.40
2018-08-11T01:43:12.147Z,17.20
2018-08-11T01:45:39.612Z,17.00
2018-08-11T01:48:07.083Z,16.90
2018-08-11T01:50:34.312Z,17.00
2018-08-11T01:53:01.561Z,16.90
2018-08-11T01:55:28.847Z,16.80
2018-08-11T01:57:56.176Z,16.60
2018-08-11T02:00:23.433Z,16.40
2018-08-11T02:02:50.644Z,16.20
2018-08-11T02:08:14.846Z,15.90
2018-08-11T02:10:42.251Z,15.80
2018-08-11T02:13:09.624Z,15.80
2018-08-11T02:15:37.044Z,15.80
2018-08-11T02:18:05.011Z,15.70
2018-08-11T02:20:32.479Z,15.50
2018-08-11T02:22:59.940Z,15.30
2018-08-11T02:25:27.375Z,15.10
2018-08-11T02:27:54.767Z,15.00
2018-08-11T02:30:22.194Z,14.90
2018-08-11T02:32:49.603Z,14.90
2018-08-11T02:35:17.061Z,14.90
2018-08-11T02:37:44.536Z,14.80
2018-08-11T02:40:13.113Z,14.60
2018-08-11T02:42:41.072Z,14.50
2018-08-11T02:45:11.133Z,14.40
2018-08-11T02:47:38.543Z,14.40
2018-08-11T02:50:07.310Z,14.60
2018-08-11T02:52:34.690Z,14.60
2018-08-11T02:55:02.548Z,14.60
2018-08-11T02:57:30.539Z,14.80
2018-08-11T02:59:57.922Z,14.80
2018-08-11T03:02:26.727Z,14.90
2018-08-11T03:04:54.211Z,14.90
2018-08-11T03:07:21.715Z,14.80
2018-08-11T03:09:49.135Z,14.80
2018-08-11T03:12:16.527Z,14.80
2018-08-11T03:14:44.227Z,14.80
2018-08-11T03:17:11.674Z,14.80
2018-08-11T03:19:39.095Z,14.80
2018-08-11T03:22:06.556Z,14.80
2018-08-11T03:24:33.918Z,14.80
2018-08-11T03:27:01.330Z,14.90
2018-08-11T03:29:28.706Z,14.90
2018-08-11T03:31:56.109Z,15.00
2018-08-11T03:34:23.515Z,15.00
2018-08-11T03:36:51.278Z,15.10
2018-08-11T03:39:18.731Z,15.00
2018-08-11T03:41:46.128Z,14.90
2018-08-11T03:44:13.599Z,14.80
2018-08-11T03:46:41.019Z,14.70
2018-08-11T03:49:08.460Z,14.60
2018-08-11T03:51:37.251Z,14.60
2018-08-11T03:54:04.665Z,14.50
2018-08-11T03:56:32.062Z,14.60
2018-08-11T03:58:59.479Z,14.50
2018-08-11T04:01:26.936Z,14.40
2018-08-11T04:03:54.335Z,14.40
2018-08-11T04:06:21.819Z,14.40
2018-08-11T04:08:49.406Z,14.50
2018-08-11T04:11:16.918Z,14.50
2018-08-11T04:13:44.377Z,14.50
2018-08-11T04:16:14.450Z,14.60
2018-08-11T04:18:42.157Z,14.80
2018-08-11T04:21:09.631Z,14.70
2018-08-11T04:23:37.156Z,14.80
2018-08-11T04:26:04.555Z,14.70
2018-08-11T04:28:31.731Z,14.70
2018-08-11T04:30:58.935Z,14.50
2018-08-11T04:33:26.419Z,14.60
2018-08-11T04:35:53.593Z,14.60
2018-08-11T04:38:20.791Z,14.60
2018-08-11T04:40:48.027Z,14.60
2018-08-11T04:43:15.339Z,14.50
2018-08-11T04:45:42.575Z,14.50
2018-08-11T04:48:09.755Z,14.60
2018-08-11T04:50:37.335Z,14.60
2018-08-11T04:53:04.703Z,14.70
2018-08-11T04:55:31.888Z,14.60
2018-08-11T04:57:59.083Z,14.50
2018-08-11T05:00:26.295Z,14.60
2018-08-11T05:02:53.475Z,14.60
2018-08-11T05:05:20.707Z,14.60
2018-08-11T05:07:47.923Z,14.70
2018-08-11T05:10:15.247Z,14.70
2018-08-11T05:12:42.473Z,14.60
2018-08-11T05:15:09.690Z,14.80
2018-08-11T05:17:37.335Z,14.80
2018-08-11T05:20:04.683Z,14.90
2018-08-11T05:22:31.895Z,15.10
2018-08-11T05:24:59.095Z,15.00
2018-08-11T05:27:26.846Z,15.00
2018-08-11T05:29:54.063Z,14.90
2018-08-11T05:32:21.259Z,15.00
2018-08-11T05:34:48.443Z,15.10
2018-08-11T05:37:16.258Z,15.10
2018-08-11T05:39:43.467Z,15.10
2018-08-11T05:42:10.676Z,15.20
2018-08-11T05:44:37.859Z,15.30
2018-08-11T05:47:05.211Z,15.30
2018-08-11T05:49:32.418Z,15.40
2018-08-11T05:51:59.617Z,15.50
2018-08-11T05:54:28.379Z,15.40
2018-08-11T05:56:55.569Z,15.30
2018-08-11T05:59:23.058Z,15.30
2018-08-11T06:01:50.250Z,15.50
2018-08-11T06:04:17.476Z,15.40
2018-08-11T06:06:44.730Z,15.40
2018-08-11T06:09:11.936Z,15.50
2018-08-11T06:11:39.175Z,15.50
2018-08-11T06:14:06.906Z,15.70
2018-08-11T06:16:34.133Z,15.80
2018-08-11T06:19:01.306Z,15.90
2018-08-11T06:21:28.529Z,15.70
2018-08-11T06:23:55.766Z,15.90
2018-08-11T06:26:22.982Z,15.90
2018-08-11T06:28:50.666Z,16.10
2018-08-11T06:31:19.058Z,16.10
2018-08-11T06:33:46.247Z,16.30
2018-08-11T06:36:13.540Z,16.30
2018-08-11T06:38:40.805Z,16.30
2018-08-11T06:41:08.060Z,16.40
2018-08-11T06:43:35.306Z,16.40
2018-08-11T06:46:02.589Z,16.50
2018-08-11T06:48:30.222Z,16.80
2018-08-11T06:50:57.426Z,17.00
2018-08-11T06:53:24.675Z,17.00
2018-08-11T06:55:51.889Z,17.00
2018-08-11T06:58:19.235Z,17.00
2018-08-11T07:00:46.523Z,17.00
2018-08-11T07:03:13.771Z,16.90
2018-08-11T07:05:40.975Z,17.00
2018-08-11T07:08:08.152Z,16.90
2018-08-11T07:10:35.464Z,16.80
2018-08-11T07:13:02.722Z,16.90
2018-08-11T07:15:29.970Z,17.10
2018-08-11T07:17:57.167Z,17.10
2018-08-11T07:20:24.455Z,17.10
2018-08-11T07:22:51.763Z,17.20
2018-08-11T07:25:18.955Z,17.30
2018-08-11T07:27:46.190Z,17.40
2018-08-11T07:30:13.438Z,17.40
2018-08-11T07:32:40.618Z,17.50
2018-08-11T07:35:07.843Z,17.70
2018-08-11T07:37:35.222Z,17.80
2018-08-11T07:40:02.554Z,18.00
2018-08-11T07:42:29.779Z,17.90
2018-08-11T07:44:56.967Z,18.00
2018-08-11T07:47:24.201Z,18.10
2018-08-11T07:49:51.381Z,18.20
2018-08-11T07:52:18.919Z,18.30
2018-08-11T07:54:47.572Z,18.30
2018-08-11T07:57:14.947Z,18.30
2018-08-11T07:59:43.083Z,18.30
2018-08-11T08:02:10.279Z,18.30
2018-08-11T08:04:37.618Z,18.30
2018-08-11T08:07:05.007Z,18.40
2018-08-11T08:09:32.200Z,18.60
2018-08-11T08:11:59.466Z,18.60
2018-08-11T08:14:26.662Z,18.70
2018-08-11T08:16:53.880Z,18.60
2018-08-11T08:19:21.080Z,18.70
2018-08-11T08:21:48.266Z,18.80
2018-08-11T08:24:15.574Z,18.60
2018-08-11T08:26:42.836Z,18.80
2018-08-11T08:29:10.011Z,19.00
2018-08-11T08:31:37.226Z,19.00
2018-08-11T08:34:04.635Z,19.10
2018-08-11T08:36:31.830Z,19.10
2018-08-11T08:38:59.143Z,19.30
2018-08-11T08:41:26.379Z,19.50
2018-08-11T08:43:54.019Z,19.60
2018-08-11T08:46:21.219Z,19.70
2018-08-11T08:48:48.446Z,19.60
2018-08-11T08:51:16.395Z,19.70
2018-08-11T08:53:44.003Z,19.70
2018-08-11T08:56:11.195Z,19.90
2018-08-11T08:58:38.403Z,20.00
2018-08-11T09:01:05.591Z,20.00
2018-08-11T09:03:32.807Z,19.90
2018-08-11T09:06:00.031Z,20.00
2018-08-11T09:08:28.027Z,20.10
2018-08-11T09:10:56.495Z,20.10
2018-08-11T09:13:23.680Z,20.30
2018-08-11T09:15:50.920Z,20.40
2018-08-11T09:18:18.148Z,20.40
2018-08-11T09:20:45.411Z,20.50
2018-08-11T09:23:12.650Z,20.70
2018-08-11T09:25:39.907Z,20.60
2018-08-11T09:28:07.159Z,20.70
2018-08-11T09:30:34.414Z,20.40
2018-08-11T09:33:01.699Z,20.20
2018-08-11T09:35:28.969Z,20.20
2018-08-11T09:37:56.319Z,20.30
2018-08-11T09:40:23.532Z,20.30
2018-08-11T09:42:50.706Z,20.20
2018-08-11T09:45:17.908Z,20.10
2018-08-11T09:47:45.139Z,19.90
2018-08-11T09:50:12.358Z,20.00
2018-08-11T09:52:39.658Z,19.90
2018-08-11T09:55:06.912Z,19.90
2018-08-11T09:57:34.123Z,20.50
2018-08-11T10:00:01.435Z,21.10
2018-08-11T10:02:32.912Z,21.70
2018-08-11T10:05:00.177Z,22.00
2018-08-11T10:07:27.408Z,22.00
2018-08-11T10:09:54.603Z,21.60
2018-08-11T10:12:21.903Z,22.00
2018-08-11T10:14:49.207Z,22.40
2018-08-11T10:17:18.773Z,22.80
2018-08-11T10:19:46.013Z,22.80
2018-08-11T10:22:13.275Z,22.80
2018-08-11T10:24:45.179Z,22.70
2018-08-11T10:27:12.379Z,23.20
2018-08-11T10:29:39.588Z,23.60
2018-08-11T10:32:07.819Z,24.00
2018-08-11T10:34:35.200Z,24.00
2018-08-11T10:37:02.682Z,24.20
2018-08-11T10:39:30.192Z,23.90
2018-08-11T10:41:57.634Z,23.80
2018-08-11T10:44:25.147Z,23.70
2018-08-11T10:46:52.693Z,24.00
2018-08-11T10:49:20.183Z,24.40
2018-08-11T10:51:47.670Z,24.60
2018-08-11T10:54:15.182Z,24.00
2018-08-11T10:56:42.627Z,23.90
2018-08-11T10:59:10.151Z,23.80
2018-08-11T11:01:37.649Z,23.60
2018-08-11T11:04:05.100Z,23.30
2018-08-11T11:06:32.607Z,23.40
2018-08-11T11:09:00.119Z,23.60
2018-08-11T11:11:27.578Z,24.00
2018-08-11T11:13:55.154Z,24.00
2018-08-11T11:16:22.619Z,24.30
2018-08-11T11:18:50.097Z,24.30
2018-08-11T11:21:17.592Z,24.00
2018-08-11T11:23:45.236Z,23.10
2018-08-11T11:26:12.635Z,22.80
2018-08-11T11:28:40.116Z,22.90
2018-08-11T11:31:07.495Z,23.50
2018-08-11T11:33:35.017Z,24.20
2018-08-11T11:36:02.457Z,24.90
2018-08-11T11:38:29.910Z,25.40
2018-08-11T11:40:57.520Z,25.70
2018-08-11T11:43:25.058Z,26.10
2018-08-11T11:45:52.479Z,26.70
2018-08-11T11:48:19.948Z,26.90
2018-08-11T11:50:47.383Z,26.80
2018-08-11T11:53:14.860Z,26.10
2018-08-11T11:55:42.299Z,25.20
2018-08-11T11:58:09.770Z,24.50
2018-08-11T12:00:37.194Z,24.30
2018-08-11T12:03:04.875Z,24.70
2018-08-11T12:05:32.342Z,25.40
2018-08-11T12:07:59.839Z,26.10
2018-08-11T12:10:27.343Z,26.10
2018-08-11T12:12:54.779Z,25.90
2018-08-11T12:15:22.246Z,25.70
2018-08-11T12:17:49.690Z,25.50
2018-08-11T12:20:17.213Z,25.10
2018-08-11T12:22:44.930Z,25.40
2018-08-11T12:25:12.447Z,25.80
2018-08-11T12:27:39.972Z,25.50
2018-08-11T12:30:08.301Z,25.50
2018-08-11T12:32:35.739Z,25.90
2018-08-11T12:35:03.359Z,26.30
2018-08-11T12:37:30.899Z,26.30
2018-08-11T12:39:58.684Z,26.00
2018-08-11T12:42:26.075Z,26.00
2018-08-11T12:44:53.903Z,26.30
2018-08-11T12:47:21.455Z,26.40
2018-08-11T12:49:48.883Z,26.80
2018-08-11T12:52:16.467Z,26.40
2018-08-11T12:54:43.884Z,26.00
2018-08-11T12:57:11.309Z,25.20
2018-08-11T12:59:38.745Z,24.60
2018-08-11T13:02:06.231Z,24.20
2018-08-11T13:04:34.828Z,24.30
2018-08-11T13:07:02.311Z,24.40
2018-08-11T13:09:29.729Z,24.50
2018-08-11T13:11:57.218Z,24.60
2018-08-11T13:14:24.985Z,24.70
2018-08-11T13:16:52.481Z,24.70
2018-08-11T13:19:19.976Z,24.60
2018-08-11T13:21:47.649Z,24.00
2018-08-11T13:24:15.212Z,24.00
2018-08-11T13:26:42.743Z,23.60
2018-08-11T13:29:10.207Z,23.80
2018-08-11T13:31:37.636Z,23.60
2018-08-11T13:34:05.079Z,23.40
2018-08-11T13:36:32.599Z,23.40
2018-08-11T13:39:00.007Z,23.70
2018-08-11T13:41:37.966Z,23.60
2018-08-11T13:44:05.659Z,23.70
2018-08-11T13:46:33.008Z,23.90
2018-08-11T13:49:00.566Z,23.80
2018-08-11T13:51:27.945Z,23.70
2018-08-11T13:53:59.951Z,24.10
2018-08-11T13:56:27.346Z,24.50
2018-08-11T13:58:54.748Z,24.60
2018-08-11T14:01:22.213Z,24.30
2018-08-11T14:03:49.586Z,24.40
2018-08-11T14:08:49.616Z,25.10
2018-08-11T14:11:17.097Z,25.40
2018-08-11T14:13:44.507Z,25.60
2018-08-11T14:16:11.963Z,25.50
2018-08-11T14:18:39.369Z,25.90
2018-08-11T14:21:08.558Z,25.90
2018-08-11T14:23:35.993Z,25.50
2018-08-11T14:26:03.819Z,25.00
2018-08-11T14:28:31.294Z,24.70
2018-08-11T14:30:58.698Z,24.70
2018-08-11T14:33:30.356Z,24.50
2018-08-11T14:35:57.871Z,24.80
2018-08-11T14:38:25.255Z,25.00
2018-08-11T14:40:52.794Z,24.90
2018-08-11T14:43:20.233Z,24.50
2018-08-11T14:45:47.714Z,24.40
2018-08-11T14:48:19.317Z,24.20
2018-08-11T14:50:46.764Z,24.20
2018-08-11T14:53:14.160Z,24.30
2018-08-11T14:55:41.598Z,24.40
2018-08-11T14:58:08.955Z,24.30
2018-08-11T15:00:36.395Z,24.20
2018-08-11T15:03:07.708Z,23.90
2018-08-11T15:05:35.161Z,23.60
2018-08-11T15:08:02.555Z,23.40
2018-08-11T15:10:30.031Z,23.50
2018-08-11T15:12:57.427Z,23.60
2018-08-11T15:15:24.931Z,24.00
2018-08-11T15:17:56.338Z,24.00
2018-08-11T15:20:23.803Z,23.80
2018-08-11T15:22:51.163Z,23.60
2018-08-11T15:25:18.550Z,23.50
2018-08-11T15:27:45.943Z,23.40
2018-08-11T15:30:13.333Z,23.40
2018-08-11T15:32:40.779Z,23.40
2018-08-11T15:35:09.009Z,23.20
2018-08-11T15:37:36.482Z,23.00
2018-08-11T15:40:04.513Z,22.90
2018-08-11T15:42:31.963Z,23.00
2018-08-11T15:44:59.351Z,23.00
2018-08-11T15:47:26.802Z,23.10
2018-08-11T15:49:54.258Z,23.30
2018-08-11T15:52:21.754Z,23.40
2018-08-11T15:54:49.171Z,23.50
2018-08-11T15:57:16.800Z,23.50
2018-08-11T15:59:44.219Z,23.40
2018-08-11T16:02:11.635Z,23.30
2018-08-11T16:04:39.036Z,23.30
2018-08-11T16:07:06.474Z,23.20
2018-08-11T16:09:34.957Z,23.10
2018-08-11T16:12:02.335Z,23.10
2018-08-11T16:14:29.752Z,23.20
2018-08-11T16:16:57.139Z,23.20
2018-08-11T16:19:26.294Z,23.10
2018-08-11T16:21:53.696Z,23.10
2018-08-11T16:24:21.102Z,23.10
2018-08-11T16:26:48.870Z,23.00
2018-08-11T16:29:16.294Z,23.00
2018-08-11T16:31:43.938Z,23.00
2018-08-11T16:34:12.586Z,23.00
2018-08-11T16:36:39.983Z,23.00
2018-08-11T16:39:08.040Z,23.00
2018-08-11T16:41:35.734Z,22.90
2018-08-11T16:44:03.159Z,22.90
2018-08-11T16:46:30.536Z,22.80
2018-08-11T16:49:02.090Z,22.80
2018-08-11T16:51:29.992Z,22.90
2018-08-11T16:53:57.813Z,23.00
2018-08-11T16:56:25.191Z,23.00
2018-08-11T16:58:52.727Z,22.90
2018-08-11T17:01:20.545Z,23.00
2018-08-11T17:03:47.828Z,23.00
2018-08-11T17:06:15.223Z,23.00
2018-08-11T17:08:42.708Z,22.90
2018-08-11T17:11:10.110Z,22.80
2018-08-11T17:13:38.610Z,23.00
2018-08-11T17:16:06.019Z,23.00
2018-08-11T17:18:33.631Z,23.00
2018-08-11T17:21:01.043Z,22.90
2018-08-11T17:23:28.452Z,22.80
2018-08-11T17:25:56.579Z,22.80
2018-08-11T17:28:24.032Z,22.80
2018-08-11T17:30:51.480Z,22.80
2018-08-11T17:33:19.007Z,22.70
2018-08-11T17:35:50.816Z,22.70
2018-08-11T17:38:18.278Z,22.80
2018-08-11T17:40:45.647Z,22.90
2018-08-11T17:43:13.075Z,22.80
2018-08-11T17:45:40.492Z,22.80
2018-08-11T17:48:09.745Z,22.70
2018-08-11T17:50:38.676Z,22.70
2018-08-11T17:53:06.135Z,22.60
2018-08-11T17:55:33.657Z,22.50
2018-08-11T17:58:01.120Z,22.50
2018-08-11T18:00:28.573Z,22.40
2018-08-11T18:02:56.110Z,22.30
2018-08-11T18:05:23.523Z,22.30
2018-08-11T18:07:50.946Z,22.30
2018-08-11T18:10:21.223Z,22.30
2018-08-11T18:12:48.717Z,22.20
2018-08-11T18:15:16.143Z,22.20
2018-08-11T18:17:44.267Z,22.20
2018-08-11T18:20:11.676Z,22.20
2018-08-11T18:22:45.624Z,22.10
2018-08-11T18:25:13.199Z,22.10
2018-08-11T18:27:40.616Z,22.00
2018-08-11T18:30:08.487Z,21.90
2018-08-11T18:32:35.870Z,21.90
2018-08-11T18:35:08.335Z,21.90
2018-08-11T18:37:35.720Z,21.80
2018-08-11T18:40:03.706Z,21.80
2018-08-11T18:42:32.706Z,21.70
2018-08-11T18:45:00.154Z,21.60
2018-08-11T18:47:27.551Z,21.50
2018-08-11T18:49:55.023Z,21.40
2018-08-11T18:52:22.430Z,21.60
2018-08-11T18:54:53.195Z,21.50
2018-08-11T18:57:20.705Z,21.40
2018-08-11T18:59:48.317Z,21.40
2018-08-11T19:02:15.774Z,21.40
2018-08-11T19:04:43.207Z,21.40
2018-08-11T19:07:15.658Z,21.30
2018-08-11T19:09:43.071Z,21.30
2018-08-11T19:12:10.482Z,21.20
2018-08-11T19:14:37.900Z,21.10
2018-08-11T19:17:05.334Z,21.00
2018-08-11T19:19:33.668Z,20.90
2018-08-11T19:22:01.160Z,20.70
2018-08-11T19:24:28.614Z,20.60
2018-08-11T19:26:56.064Z,20.50
2018-08-11T19:29:23.473Z,20.40
2018-08-11T19:31:50.900Z,20.30
2018-08-11T19:34:18.359Z,20.10
2018-08-11T19:36:45.820Z,20.00
2018-08-11T19:39:13.856Z,19.80
2018-08-11T19:41:41.555Z,19.70
2018-08-11T19:44:09.360Z,19.60
2018-08-11T19:46:36.976Z,19.50
2018-08-11T19:49:04.873Z,19.40
2018-08-11T19:51:32.324Z,19.40
2018-08-11T19:53:59.741Z,19.30
2018-08-11T19:56:27.208Z,19.20
2018-08-11T19:58:54.873Z,19.10
2018-08-11T20:01:22.371Z,19.00
2018-08-11T20:03:49.950Z,18.90
2018-08-11T20:06:17.476Z,18.70
2018-08-11T20:08:44.953Z,18.70
2018-08-11T20:11:12.354Z,18.60
2018-08-11T20:13:40.853Z,18.60
2018-08-11T20:16:08.287Z,18.50
2018-08-11T20:18:35.683Z,18.40
2018-08-11T20:21:03.115Z,18.40
2018-08-11T20:23:30.562Z,18.30
2018-08-11T20:25:57.931Z,18.30
2018-08-11T20:28:25.355Z,18.10
2018-08-11T20:30:52.795Z,18.10
2018-08-11T20:33:20.300Z,18.10
2018-08-11T20:35:47.829Z,18.00
2018-08-11T20:38:15.386Z,18.00
2018-08-11T20:40:43.330Z,17.90
2018-08-11T20:43:10.933Z,17.90
2018-08-11T20:45:38.582Z,17.80
2018-08-11T20:48:06.268Z,17.80
2018-08-11T20:50:33.666Z,17.70
2018-08-11T20:53:01.194Z,17.70
2018-08-11T20:55:29.044Z,17.70
2018-08-11T20:57:56.579Z,17.60
2018-08-11T21:00:24.136Z,17.60
2018-08-11T21:02:51.635Z,17.50
2018-08-11T21:05:19.255Z,17.50
2018-08-11T21:07:46.695Z,17.40
2018-08-11T21:10:14.834Z,17.40
2018-08-11T21:12:42.627Z,17.40
2018-08-11T21:15:10.899Z,17.30
2018-08-11T21:17:38.507Z,17.20
2018-08-11T21:20:08.087Z,17.20
2018-08-11T21:22:35.642Z,17.10
2018-08-11T21:25:03.851Z,17.10
2018-08-11T21:27:31.282Z,17.00
2018-08-11T21:29:58.732Z,17.00
2018-08-11T21:32:26.118Z,16.90
2018-08-11T21:34:54.676Z,16.80
2018-08-11T21:37:22.172Z,16.80
2018-08-11T21:39:49.574Z,16.80
2018-08-11T21:42:17.129Z,16.80
2018-08-11T21:44:45.063Z,16.70
2018-08-11T21:47:12.601Z,16.70
2018-08-11T21:49:40.044Z,16.60
2018-08-11T21:52:07.474Z,16.60
2018-08-11T21:54:34.894Z,16.60
2018-08-11T21:57:02.304Z,16.50
2018-08-11T21:59:29.707Z,16.50
2018-08-11T22:01:57.133Z,16.50
2018-08-11T22:04:29.126Z,16.50
2018-08-11T22:07:00.459Z,16.50
2018-08-11T22:09:27.863Z,16.40
2018-08-11T22:11:55.322Z,16.40
2018-08-11T22:14:22.737Z,16.40
2018-08-11T22:16:50.120Z,16.40
2018-08-11T22:19:17.887Z,16.40
2018-08-11T22:21:45.297Z,16.40
2018-08-11T22:24:12.771Z,16.30
2018-08-11T22:26:40.159Z,16.30
2018-08-11T22:29:07.659Z,16.20
2018-08-11T22:31:35.099Z,16.20
2018-08-11T22:34:02.567Z,16.20
2018-08-11T22:36:30.063Z,16.10
2018-08-11T22:38:57.480Z,16.10
2018-08-11T22:41:24.899Z,16.10
2018-08-11T22:43:52.405Z,16.00
2018-08-11T22:46:20.157Z,16.00
2018-08-11T22:48:47.742Z,16.00
2018-08-11T22:51:15.176Z,16.00
2018-08-11T22:53:42.599Z,16.00
2018-08-11T22:56:10.103Z,16.00
2018-08-11T22:58:37.677Z,16.00
2018-08-11T23:01:05.283Z,16.00
2018-08-11T23:03:32.742Z,16.00
2018-08-11T23:06:02.187Z,16.00
2018-08-11T23:08:29.607Z,16.00
2018-08-11T23:10:57.113Z,15.90
2018-08-11T23:13:24.558Z,15.90
2018-08-11T23:15:51.975Z,15.90
2018-08-11T23:18:19.500Z,15.90
2018-08-11T23:20:51.875Z,15.90
2018-08-11T23:23:19.684Z,15.80
2018-08-11T23:25:47.240Z,15.80
2018-08-11T23:28:14.756Z,15.80
2018-08-11T23:30:42.219Z,15.80
2018-08-11T23:33:13.518Z,15.70
2018-08-11T23:35:40.939Z,15.60
2018-08-11T23:38:08.818Z,15.60
2018-08-11T23:40:40.848Z,15.60
2018-08-11T23:43:08.327Z,15.60
2018-08-11T23:45:35.755Z,15.50
2018-08-11T23:48:03.371Z,15.60
2018-08-11T23:50:30.816Z,15.50
2018-08-11T23:52:58.372Z,15.30
2018-08-11T23:55:25.787Z,15.40
2018-08-11T23:57:53.197Z,15.50
